createdAt,value
2023-05-21T00:00:35.270Z,68.641
2023-05-21T00:01:35.735Z,68.470
2023-05-21T00:02:35.626Z,68.706
2023-05-21T00:03:36.223Z,68.855
2023-05-21T00:04:35.433Z,68.634
2023-05-21T00:06:35.485Z,68.851
2023-05-21T00:08:35.642Z,68.899
2023-05-21T00:09:35.098Z,68.920
2023-05-21T00:10:35.609Z,68.949
2023-05-21T00:11:35.044Z,68.928
2023-05-21T00:12:35.702Z,68.962
2023-05-21T00:13:35.123Z,69.299
2023-05-21T00:14:35.668Z,69.044
2023-05-21T00:15:35.537Z,69.082
2023-05-21T00:16:35.723Z,69.189
2023-05-21T00:17:35.595Z,69.216
2023-05-21T00:19:35.350Z,69.332
2023-05-21T00:20:35.788Z,69.614
2023-05-21T00:21:35.712Z,69.595
2023-05-21T00:22:35.095Z,69.759
2023-05-21T00:23:35.615Z,69.687
2023-05-21T00:24:35.074Z,69.669
2023-05-21T00:25:35.974Z,69.753
2023-05-21T00:27:35.230Z,69.752
2023-05-21T00:28:35.583Z,69.700
2023-05-21T00:30:35.251Z,69.980
2023-05-21T00:31:35.958Z,69.629
2023-05-21T00:32:35.840Z,69.725
2023-05-21T00:33:35.823Z,69.803
2023-05-21T00:34:35.333Z,69.889
2023-05-21T00:35:36.106Z,69.797
2023-05-21T00:37:35.309Z,69.849
2023-05-21T00:38:35.829Z,69.803
2023-05-21T00:39:35.217Z,69.809
2023-05-21T00:40:35.657Z,69.471
2023-05-21T00:41:35.159Z,69.526
2023-05-21T00:42:35.619Z,69.776
2023-05-21T00:43:35.045Z,69.877
2023-05-21T00:44:35.507Z,69.893
2023-05-21T00:45:35.482Z,69.977
2023-05-21T00:46:36.136Z,70.078
2023-05-21T00:47:35.798Z,70.102
2023-05-21T00:48:35.517Z,69.931
2023-05-21T00:49:35.031Z,69.958
2023-05-21T00:50:35.497Z,70.013
2023-05-21T00:51:34.946Z,69.958
2023-05-21T00:52:35.398Z,69.837
2023-05-21T00:53:35.426Z,69.748
2023-05-21T00:54:34.882Z,69.757
2023-05-21T00:55:35.482Z,69.902
2023-05-21T00:56:35.561Z,69.927
2023-05-21T00:57:34.981Z,70.038
2023-05-21T00:58:36.847Z,70.055
2023-05-21T00:59:35.230Z,70.148
2023-05-21T01:00:35.761Z,70.299
2023-05-21T01:01:35.402Z,70.139
2023-05-21T01:02:35.819Z,70.207
2023-05-21T01:03:36.132Z,70.198
2023-05-21T01:04:35.058Z,70.469
2023-05-21T01:05:35.950Z,70.431
2023-05-21T01:07:35.171Z,70.465
2023-05-21T01:08:35.758Z,70.402
2023-05-21T01:09:35.273Z,70.322
2023-05-21T01:10:35.853Z,70.522
2023-05-21T01:11:35.333Z,70.671
2023-05-21T01:12:35.809Z,70.690
2023-05-21T01:13:35.396Z,70.873
2023-05-21T01:14:34.835Z,70.837
2023-05-21T01:15:35.394Z,70.907
2023-05-21T01:16:35.208Z,70.822
2023-05-21T01:17:35.891Z,70.749
2023-05-21T01:18:35.715Z,70.877
2023-05-21T01:19:35.888Z,70.991
2023-05-21T01:20:35.459Z,70.801
2023-05-21T01:21:35.050Z,70.581
2023-05-21T01:22:35.514Z,70.606
2023-05-21T01:23:34.974Z,70.614
2023-05-21T01:24:35.585Z,70.659
2023-05-21T01:25:35.420Z,70.667
2023-05-21T01:26:35.447Z,70.640
2023-05-21T01:27:34.934Z,70.602
2023-05-21T01:28:35.394Z,70.617
2023-05-21T01:29:34.849Z,70.633
2023-05-21T01:30:35.694Z,70.911
2023-05-21T01:31:35.194Z,70.982
2023-05-21T01:32:35.812Z,70.987
2023-05-21T01:33:36.614Z,70.707
2023-05-21T01:35:36.075Z,70.766
2023-05-21T01:36:34.941Z,70.804
2023-05-21T01:37:35.382Z,70.837
2023-05-21T01:38:34.859Z,70.783
2023-05-21T01:39:35.358Z,70.684
2023-05-21T01:40:35.891Z,70.743
2023-05-21T01:41:35.334Z,70.818
2023-05-21T01:42:35.746Z,70.898
2023-05-21T01:43:35.255Z,71.131
2023-05-21T01:44:35.787Z,70.858
2023-05-21T01:45:35.318Z,70.984
2023-05-21T01:46:35.323Z,71.142
2023-05-21T01:47:35.051Z,71.354
2023-05-21T01:48:35.640Z,71.386
2023-05-21T01:49:35.287Z,71.564
2023-05-21T01:50:35.759Z,71.499
2023-05-21T01:51:35.251Z,71.493
2023-05-21T01:52:35.692Z,71.739
2023-05-21T01:53:35.178Z,71.781
2023-05-21T01:54:35.685Z,71.888
2023-05-21T01:55:35.330Z,71.640
2023-05-21T01:56:35.347Z,71.394
2023-05-21T01:57:35.828Z,71.607
2023-05-21T01:58:35.353Z,71.628
2023-05-21T01:59:35.815Z,71.863
2023-05-21T02:00:35.304Z,72.010
2023-05-21T02:01:36.093Z,72.079
2023-05-21T02:02:36.291Z,72.000
2023-05-21T02:03:35.296Z,72.389
2023-05-21T02:05:35.912Z,72.689
2023-05-21T02:06:35.835Z,72.893
2023-05-21T02:07:35.333Z,72.504
2023-05-21T02:08:35.790Z,72.862
2023-05-21T02:09:35.288Z,72.891
2023-05-21T02:10:35.761Z,72.977
2023-05-21T02:11:35.269Z,73.038
2023-05-21T02:12:35.760Z,73.419
2023-05-21T02:13:36.173Z,73.522
2023-05-21T02:14:35.924Z,73.549
2023-05-21T02:15:35.793Z,73.421
2023-05-21T02:16:36.034Z,73.326
2023-05-21T02:17:35.819Z,73.469
2023-05-21T02:18:35.654Z,73.807
2023-05-21T02:19:35.928Z,73.837
2023-05-21T02:20:35.705Z,73.658
2023-05-21T02:22:35.664Z,73.519
2023-05-21T02:23:35.220Z,73.631
2023-05-21T02:24:35.805Z,73.576
2023-05-21T02:25:35.548Z,73.946
2023-05-21T02:26:35.499Z,74.165
2023-05-21T02:27:34.950Z,74.097
2023-05-21T02:28:35.460Z,74.018
2023-05-21T02:29:34.932Z,74.014
2023-05-21T02:30:35.427Z,73.862
2023-05-21T02:31:34.924Z,73.793
2023-05-21T02:32:35.795Z,73.973
2023-05-21T02:33:35.950Z,73.896
2023-05-21T02:34:35.615Z,73.938
2023-05-21T02:35:35.482Z,73.942
2023-05-21T02:36:35.452Z,74.196
2023-05-21T02:37:34.919Z,74.293
2023-05-21T02:38:35.445Z,74.440
2023-05-21T02:39:34.933Z,74.169
2023-05-21T02:40:35.391Z,74.301
2023-05-21T02:41:34.911Z,74.358
2023-05-21T02:42:35.424Z,74.623
2023-05-21T02:43:34.923Z,74.634
2023-05-21T02:44:35.383Z,74.814
2023-05-21T02:45:35.290Z,74.667
2023-05-21T02:46:36.002Z,74.671
2023-05-21T02:47:35.834Z,74.871
2023-05-21T02:49:35.029Z,74.859
2023-05-21T02:50:35.498Z,74.894
2023-05-21T02:51:34.961Z,74.949
2023-05-21T02:52:35.406Z,75.121
2023-05-21T02:53:35.838Z,75.104
2023-05-21T02:54:35.335Z,75.300
2023-05-21T02:55:36.217Z,75.229
2023-05-21T02:56:35.284Z,75.258
2023-05-21T02:57:35.807Z,75.540
2023-05-21T02:58:35.312Z,75.699
2023-05-21T02:59:35.813Z,75.636
2023-05-21T03:00:35.311Z,75.622
2023-05-21T03:01:35.977Z,75.611
2023-05-21T03:02:35.989Z,75.579
2023-05-21T03:03:36.348Z,75.542
2023-05-21T03:04:35.017Z,75.609
2023-05-21T03:05:35.725Z,75.781
2023-05-21T03:06:35.751Z,75.817
2023-05-21T03:07:35.301Z,75.975
2023-05-21T03:08:35.844Z,76.044
2023-05-21T03:09:35.413Z,76.000
2023-05-21T03:10:34.861Z,75.966
2023-05-21T03:11:35.327Z,76.055
2023-05-21T03:12:35.928Z,76.208
2023-05-21T03:13:35.751Z,76.376
2023-05-21T03:16:35.879Z,76.607
2023-05-21T03:17:35.610Z,76.563
2023-05-21T03:18:35.358Z,76.593
2023-05-21T03:19:35.187Z,76.658
2023-05-21T03:20:35.720Z,76.628
2023-05-21T03:21:35.174Z,76.576
2023-05-21T03:22:35.674Z,76.710
2023-05-21T03:23:35.041Z,76.891
2023-05-21T03:24:35.589Z,76.662
2023-05-21T03:25:35.209Z,76.939
2023-05-21T03:26:35.018Z,76.559
2023-05-21T03:27:35.474Z,76.618
2023-05-21T03:28:34.923Z,76.483
2023-05-21T03:29:35.429Z,76.404
2023-05-21T03:30:34.919Z,76.498
2023-05-21T03:31:35.700Z,76.567
2023-05-21T03:32:35.376Z,76.572
2023-05-21T03:33:35.101Z,76.372
2023-05-21T03:34:35.705Z,76.631
2023-05-21T03:35:35.433Z,76.780
2023-05-21T03:36:35.338Z,76.525
2023-05-21T03:37:34.961Z,76.826
2023-05-21T03:38:37.247Z,76.683
2023-05-21T03:40:35.225Z,76.748
2023-05-21T03:41:35.734Z,76.763
2023-05-21T03:43:35.828Z,76.897
2023-05-21T03:44:35.469Z,76.885
2023-05-21T03:45:35.197Z,76.824
2023-05-21T03:46:36.232Z,76.860
2023-05-21T03:47:34.958Z,77.024
2023-05-21T03:48:35.666Z,76.855
2023-05-21T03:49:35.125Z,77.005
2023-05-21T03:50:35.672Z,77.194
2023-05-21T03:51:35.136Z,77.116
2023-05-21T03:52:35.647Z,77.370
2023-05-21T03:53:35.163Z,77.322
2023-05-21T03:54:35.706Z,77.400
2023-05-21T03:55:35.651Z,77.303
2023-05-21T03:56:35.451Z,77.249
2023-05-21T03:57:34.896Z,77.246
2023-05-21T03:58:35.384Z,77.391
2023-05-21T03:59:35.881Z,77.158
2023-05-21T04:00:35.384Z,76.984
2023-05-21T04:01:35.886Z,76.969
2023-05-21T04:02:35.778Z,77.215
2023-05-21T04:03:39.223Z,77.240
2023-05-21T04:04:35.814Z,77.291
2023-05-21T04:05:35.658Z,77.274
2023-05-21T04:06:35.605Z,77.223
2023-05-21T04:07:35.069Z,77.253
2023-05-21T04:08:35.499Z,77.330
2023-05-21T04:09:36.858Z,77.299
2023-05-21T04:11:34.976Z,77.047
2023-05-21T04:12:35.461Z,77.158
2023-05-21T04:13:34.851Z,77.158
2023-05-21T04:14:35.471Z,77.022
2023-05-21T04:15:35.137Z,77.066
2023-05-21T04:16:35.895Z,77.078
2023-05-21T04:18:35.483Z,77.009
2023-05-21T04:19:35.787Z,76.891
2023-05-21T04:20:35.349Z,76.897
2023-05-21T04:21:35.979Z,76.818
2023-05-21T04:22:35.515Z,76.765
2023-05-21T04:23:34.956Z,76.887
2023-05-21T04:24:35.695Z,76.811
2023-05-21T04:25:35.288Z,76.843
2023-05-21T04:27:35.496Z,76.731
2023-05-21T04:28:35.026Z,76.469
2023-05-21T04:29:35.525Z,76.511
2023-05-21T04:30:35.260Z,76.216
2023-05-21T04:31:36.120Z,76.162
2023-05-21T04:32:35.169Z,76.010
2023-05-21T04:33:34.871Z,76.088
2023-05-21T04:34:35.335Z,76.126
2023-05-21T04:35:36.239Z,76.027
2023-05-21T04:36:34.838Z,76.019
2023-05-21T04:37:35.398Z,75.920
2023-05-21T04:38:34.884Z,75.819
2023-05-21T04:39:35.323Z,75.762
2023-05-21T04:40:39.318Z,75.643
2023-05-21T04:41:35.709Z,75.682
2023-05-21T04:42:35.225Z,75.376
2023-05-21T04:43:35.881Z,75.340
2023-05-21T04:44:35.476Z,75.233
2023-05-21T04:45:35.216Z,75.237
2023-05-21T04:46:35.455Z,75.224
2023-05-21T04:47:36.052Z,75.126
2023-05-21T04:48:35.604Z,75.071
2023-05-21T04:49:35.176Z,75.035
2023-05-21T04:50:35.652Z,74.982
2023-05-21T04:51:35.111Z,75.016
2023-05-21T04:52:35.671Z,74.875
2023-05-21T04:54:35.575Z,74.589
2023-05-21T04:55:35.229Z,74.440
2023-05-21T04:56:35.203Z,74.472
2023-05-21T04:57:35.684Z,74.419
2023-05-21T04:58:35.135Z,74.362
2023-05-21T04:59:35.623Z,74.303
2023-05-21T05:00:35.226Z,74.137
2023-05-21T05:01:35.831Z,73.860
2023-05-21T05:02:35.743Z,73.835
2023-05-21T05:03:35.442Z,73.845
2023-05-21T05:05:35.787Z,73.326
2023-05-21T05:06:34.978Z,73.417
2023-05-21T05:07:35.572Z,73.328
2023-05-21T05:08:35.037Z,73.141
2023-05-21T05:09:35.565Z,73.002
2023-05-21T05:10:35.017Z,72.983
2023-05-21T05:11:35.535Z,73.034
2023-05-21T05:12:35.029Z,73.120
2023-05-21T05:13:35.511Z,73.091
2023-05-21T05:14:34.951Z,72.759
2023-05-21T05:15:35.681Z,72.590
2023-05-21T05:16:35.881Z,72.519
2023-05-21T05:17:35.581Z,72.355
2023-05-21T05:18:35.223Z,72.258
2023-05-21T05:19:36.435Z,72.000
2023-05-21T05:20:34.864Z,71.976
2023-05-21T05:21:35.382Z,72.384
2023-05-21T05:22:35.909Z,72.208
2023-05-21T05:23:35.416Z,72.182
2023-05-21T05:24:34.908Z,71.855
2023-05-21T05:25:35.571Z,71.306
2023-05-21T05:26:35.787Z,71.115
2023-05-21T05:27:37.707Z,71.266
2023-05-21T05:28:34.958Z,70.820
2023-05-21T05:29:35.434Z,70.568
2023-05-21T05:30:35.194Z,71.142
2023-05-21T05:31:36.292Z,70.781
2023-05-21T05:32:36.149Z,70.625
2023-05-21T05:33:35.676Z,70.772
2023-05-21T05:34:35.074Z,70.617
2023-05-21T05:35:35.741Z,70.360
2023-05-21T05:37:35.232Z,70.265
2023-05-21T05:38:35.732Z,70.215
2023-05-21T05:39:35.264Z,70.299
2023-05-21T05:40:35.824Z,69.759
2023-05-21T05:41:35.432Z,69.513
2023-05-21T05:42:34.935Z,69.242
2023-05-21T05:43:35.411Z,68.638
2023-05-21T05:44:34.895Z,68.809
2023-05-21T05:45:35.443Z,68.929
2023-05-21T05:46:36.162Z,68.752
2023-05-21T05:47:34.960Z,68.067
2023-05-21T05:48:35.596Z,67.653
2023-05-21T05:49:35.189Z,68.090
2023-05-21T05:50:35.714Z,67.791
2023-05-21T05:51:35.140Z,67.798
2023-05-21T05:52:35.550Z,67.962
2023-05-21T05:53:34.998Z,67.589
2023-05-21T05:54:35.471Z,66.175
2023-05-21T05:55:35.202Z,66.145
2023-05-21T05:56:35.511Z,66.198
2023-05-21T05:57:34.977Z,66.009
2023-05-21T05:58:35.410Z,64.617
2023-05-21T05:59:34.821Z,65.143
2023-05-21T06:00:35.270Z,64.865
2023-05-21T06:01:35.714Z,64.272
2023-05-21T06:02:35.826Z,64.371
2023-05-21T06:03:36.633Z,64.874
2023-05-21T06:04:35.548Z,65.241
2023-05-21T06:05:35.453Z,64.436
2023-05-21T06:06:35.813Z,64.804
2023-05-21T06:07:35.258Z,64.653
2023-05-21T06:08:38.082Z,64.403
2023-05-21T06:09:35.854Z,63.903
2023-05-21T06:10:35.412Z,63.671
2023-05-21T06:11:34.981Z,63.951
2023-05-21T06:12:35.468Z,63.402
2023-05-21T06:13:34.974Z,62.696
2023-05-21T06:14:35.452Z,61.914
2023-05-21T06:15:35.249Z,63.198
2023-05-21T06:16:36.757Z,63.913
2023-05-21T06:18:35.386Z,64.178
2023-05-21T06:19:35.172Z,64.363
2023-05-21T06:20:35.683Z,64.623
2023-05-21T06:21:35.194Z,64.609
2023-05-21T06:22:35.689Z,63.636
2023-05-21T06:23:35.435Z,63.760
2023-05-21T06:24:34.931Z,64.531
2023-05-21T06:25:35.699Z,63.974
2023-05-21T06:26:35.906Z,63.926
2023-05-21T06:27:35.284Z,63.072
2023-05-21T06:28:35.782Z,62.418
2023-05-21T06:29:35.297Z,62.849
2023-05-21T06:30:35.758Z,62.664
2023-05-21T06:31:35.165Z,62.982
2023-05-21T06:32:36.464Z,62.830
2023-05-21T06:33:35.445Z,62.713
2023-05-21T06:35:36.070Z,61.493
2023-05-21T06:36:34.881Z,61.369
2023-05-21T06:37:36.038Z,62.917
2023-05-21T06:38:35.466Z,63.440
2023-05-21T06:39:34.957Z,62.711
2023-05-21T06:40:35.386Z,62.818
2023-05-21T06:41:35.869Z,61.866
2023-05-21T06:42:35.358Z,62.341
2023-05-21T06:43:35.772Z,62.387
2023-05-21T06:44:35.244Z,62.666
2023-05-21T06:45:36.131Z,62.231
2023-05-21T06:46:35.884Z,61.531
2023-05-21T06:47:35.629Z,61.451
2023-05-21T06:48:35.195Z,61.746
2023-05-21T06:49:35.721Z,61.103
2023-05-21T06:52:35.192Z,60.495
2023-05-21T06:53:35.698Z,60.030
2023-05-21T06:54:35.135Z,59.902
2023-05-21T06:55:35.849Z,59.435
2023-05-21T06:56:35.777Z,59.297
2023-05-21T06:57:35.279Z,58.952
2023-05-21T06:58:35.781Z,58.311
2023-05-21T06:59:35.277Z,57.941
2023-05-21T07:00:35.853Z,59.366
2023-05-21T07:01:35.589Z,58.832
2023-05-21T07:02:36.255Z,58.780
2023-05-21T07:03:35.585Z,58.136
2023-05-21T07:04:35.299Z,57.890
2023-05-21T07:05:35.980Z,58.078
2023-05-21T07:06:35.186Z,58.609
2023-05-21T07:07:35.755Z,59.005
2023-05-21T07:08:35.203Z,59.337
2023-05-21T07:09:35.702Z,59.181
2023-05-21T07:10:35.186Z,59.555
2023-05-21T07:11:35.683Z,58.237
2023-05-21T07:12:35.168Z,57.788
2023-05-21T07:13:35.759Z,58.166
2023-05-21T07:14:35.289Z,58.513
2023-05-21T07:15:35.854Z,58.448
2023-05-21T07:16:35.113Z,58.633
2023-05-21T07:17:36.163Z,58.458
2023-05-21T07:18:34.927Z,58.773
2023-05-21T07:19:35.870Z,57.970
2023-05-21T07:20:35.336Z,57.350
2023-05-21T07:21:35.831Z,57.785
2023-05-21T07:22:35.345Z,58.542
2023-05-21T07:23:35.037Z,58.664
2023-05-21T07:24:35.656Z,57.996
2023-05-21T07:26:35.045Z,57.376
2023-05-21T07:27:35.601Z,57.827
2023-05-21T07:28:35.175Z,57.916
2023-05-21T07:29:35.649Z,58.523
2023-05-21T07:30:35.113Z,59.005
2023-05-21T07:31:36.091Z,58.982
2023-05-21T07:33:35.625Z,58.340
2023-05-21T07:34:35.060Z,59.003
2023-05-21T07:35:35.745Z,58.012
2023-05-21T07:36:35.648Z,58.046
2023-05-21T07:37:35.207Z,58.378
2023-05-21T07:38:34.955Z,58.494
2023-05-21T07:39:35.414Z,58.523
2023-05-21T07:40:34.850Z,57.865
2023-05-21T07:41:35.552Z,58.780
2023-05-21T07:42:35.036Z,59.265
2023-05-21T07:43:35.528Z,59.663
2023-05-21T07:44:34.978Z,58.534
2023-05-21T07:45:35.699Z,59.415
2023-05-21T07:46:36.202Z,58.214
2023-05-21T07:48:38.197Z,57.273
2023-05-21T07:50:35.059Z,56.575
2023-05-21T07:51:35.553Z,56.585
2023-05-21T07:52:35.029Z,55.303
2023-05-21T07:53:35.676Z,55.799
2023-05-21T07:54:35.234Z,55.950
2023-05-21T07:55:35.930Z,56.690
2023-05-21T07:56:35.883Z,56.242
2023-05-21T07:57:35.317Z,55.427
2023-05-21T07:58:35.983Z,57.035
2023-05-21T07:59:35.423Z,56.316
2023-05-21T08:00:34.915Z,57.058
2023-05-21T08:01:35.386Z,56.741
2023-05-21T08:02:35.288Z,55.997
2023-05-21T08:03:36.175Z,57.252
2023-05-21T08:04:36.578Z,56.596
2023-05-21T08:06:35.407Z,57.731
2023-05-21T08:07:35.874Z,58.117
2023-05-21T08:08:35.333Z,58.248
2023-05-21T08:09:35.865Z,57.191
2023-05-21T08:10:35.328Z,56.451
2023-05-21T08:11:35.882Z,56.310
2023-05-21T08:12:35.412Z,55.862
2023-05-21T08:13:34.886Z,55.334
2023-05-21T08:14:35.379Z,56.278
2023-05-21T08:15:36.040Z,57.296
2023-05-21T08:16:36.134Z,57.762
2023-05-21T08:17:35.079Z,57.991
2023-05-21T08:18:35.906Z,57.079
2023-05-21T08:19:35.765Z,57.466
2023-05-21T08:20:35.544Z,56.686
2023-05-21T08:23:35.018Z,56.245
2023-05-21T08:24:35.544Z,56.013
2023-05-21T08:25:35.157Z,55.774
2023-05-21T08:26:35.309Z,55.055
2023-05-21T08:27:35.932Z,54.183
2023-05-21T08:28:35.375Z,53.676
2023-05-21T08:29:35.973Z,55.587
2023-05-21T08:30:35.412Z,56.022
2023-05-21T08:31:35.021Z,56.861
2023-05-21T08:32:35.948Z,56.232
2023-05-21T08:33:35.867Z,56.846
2023-05-21T08:34:35.593Z,55.229
2023-05-21T08:37:35.494Z,53.199
2023-05-21T08:38:35.903Z,52.248
2023-05-21T08:39:35.348Z,52.526
2023-05-21T08:40:35.843Z,53.285
2023-05-21T08:41:35.417Z,52.457
2023-05-21T08:42:42.991Z,52.785
2023-05-21T08:43:35.496Z,53.693
2023-05-21T08:45:35.597Z,53.020
2023-05-21T08:47:36.064Z,52.816
2023-05-21T08:48:35.737Z,53.886
2023-05-21T08:49:35.211Z,54.971
2023-05-21T08:50:35.800Z,54.681
2023-05-21T08:51:35.282Z,55.494
2023-05-21T08:52:35.774Z,54.489
2023-05-21T08:53:35.283Z,54.758
2023-05-21T08:54:35.706Z,53.983
2023-05-21T08:55:35.413Z,53.926
2023-05-21T08:56:35.159Z,53.468
2023-05-21T08:57:35.679Z,52.791
2023-05-21T08:58:35.150Z,52.534
2023-05-21T08:59:35.681Z,53.213
2023-05-21T09:00:35.132Z,52.644
2023-05-21T09:01:36.243Z,52.276
2023-05-21T09:03:36.370Z,51.103
2023-05-21T09:04:35.302Z,51.435
2023-05-21T09:05:35.520Z,52.831
2023-05-21T09:06:35.435Z,52.762
2023-05-21T09:07:34.903Z,52.928
2023-05-21T09:08:35.334Z,52.778
2023-05-21T09:09:34.886Z,51.788
2023-05-21T09:10:35.452Z,52.490
2023-05-21T09:11:34.886Z,51.723
2023-05-21T09:12:35.414Z,52.471
2023-05-21T09:13:36.319Z,52.343
2023-05-21T09:14:35.772Z,52.036
2023-05-21T09:15:35.385Z,53.024
2023-05-21T09:16:35.783Z,52.265
2023-05-21T09:17:35.710Z,52.948
2023-05-21T09:18:35.392Z,51.967
2023-05-21T09:19:35.454Z,50.586
2023-05-21T09:22:35.307Z,52.379
2023-05-21T09:23:35.744Z,52.040
2023-05-21T09:24:39.021Z,51.652
2023-05-21T09:26:35.150Z,52.095
2023-05-21T09:27:35.686Z,51.584
2023-05-21T09:28:35.186Z,51.725
2023-05-21T09:29:35.660Z,50.605
2023-05-21T09:30:42.173Z,49.657
2023-05-21T09:31:35.768Z,49.762
2023-05-21T09:32:35.434Z,51.177
2023-05-21T09:33:35.353Z,51.206
2023-05-21T09:34:35.067Z,50.764
2023-05-21T09:35:36.236Z,49.842
2023-05-21T09:36:35.196Z,49.274
2023-05-21T09:37:37.110Z,48.673
2023-05-21T09:38:35.776Z,47.769
2023-05-21T09:39:35.338Z,48.168
2023-05-21T09:40:36.053Z,48.801
2023-05-21T09:41:34.866Z,47.904
2023-05-21T09:42:35.417Z,47.952
2023-05-21T09:43:34.951Z,48.767
2023-05-21T09:44:35.404Z,48.942
2023-05-21T09:45:36.066Z,47.988
2023-05-21T09:46:36.078Z,49.089
2023-05-21T09:47:35.865Z,49.253
2023-05-21T09:48:35.506Z,49.056
2023-05-21T09:50:35.863Z,47.502
2023-05-21T09:51:35.920Z,46.390
2023-05-21T09:52:35.356Z,46.310
2023-05-21T09:53:34.928Z,45.951
2023-05-21T09:54:35.449Z,46.066
2023-05-21T09:55:34.851Z,46.758
2023-05-21T09:56:35.399Z,47.264
2023-05-21T09:57:35.897Z,47.643
2023-05-21T09:58:35.447Z,48.822
2023-05-21T09:59:34.903Z,48.511
2023-05-21T10:00:35.668Z,48.496
2023-05-21T10:01:35.564Z,48.553
2023-05-21T10:02:35.222Z,49.545
2023-05-21T10:03:34.937Z,50.092
2023-05-21T10:04:35.512Z,50.687
2023-05-21T10:07:35.821Z,51.269
2023-05-21T10:08:35.245Z,51.023
2023-05-21T10:09:35.780Z,50.106
2023-05-21T10:10:35.418Z,50.083
2023-05-21T10:11:35.632Z,50.447
2023-05-21T10:12:35.266Z,50.455
2023-05-21T10:13:35.711Z,49.596
2023-05-21T10:14:35.187Z,48.715
2023-05-21T10:15:35.703Z,48.847
2023-05-21T10:16:35.389Z,49.758
2023-05-21T10:17:35.256Z,48.789
2023-05-21T10:18:35.856Z,48.276
2023-05-21T10:19:35.774Z,49.667
2023-05-21T10:20:35.360Z,50.365
2023-05-21T10:21:35.360Z,50.472
2023-05-21T10:22:35.825Z,50.609
2023-05-21T10:23:35.251Z,50.416
2023-05-21T10:24:35.721Z,50.239
2023-05-21T10:25:35.152Z,49.964
2023-05-21T10:26:35.655Z,49.585
2023-05-21T10:27:38.084Z,49.955
2023-05-21T10:28:35.559Z,49.104
2023-05-21T10:30:35.705Z,49.619
2023-05-21T10:31:36.050Z,48.410
2023-05-21T10:32:36.230Z,48.601
2023-05-21T10:33:35.484Z,48.797
2023-05-21T10:34:35.132Z,49.209
2023-05-21T10:35:35.903Z,48.726
2023-05-21T10:36:35.834Z,48.492
2023-05-21T10:37:35.310Z,47.389
2023-05-21T10:38:35.767Z,46.161
2023-05-21T10:39:35.305Z,47.115
2023-05-21T10:40:35.942Z,47.214
2023-05-21T10:41:34.942Z,47.841
2023-05-21T10:42:35.426Z,48.063
2023-05-21T10:43:34.870Z,48.290
2023-05-21T10:44:35.394Z,48.944
2023-05-21T10:45:36.145Z,48.494
2023-05-21T10:46:35.722Z,49.259
2023-05-21T10:47:35.228Z,48.599
2023-05-21T10:48:35.818Z,48.641
2023-05-21T10:49:35.263Z,48.160
2023-05-21T10:50:35.881Z,47.449
2023-05-21T10:51:35.887Z,47.937
2023-05-21T10:52:35.324Z,47.744
2023-05-21T10:53:36.031Z,47.416
2023-05-21T10:54:35.537Z,48.295
2023-05-21T10:55:34.969Z,48.160
2023-05-21T10:56:35.737Z,47.447
2023-05-21T10:58:39.081Z,46.121
2023-05-21T10:59:35.543Z,46.209
2023-05-21T11:01:36.086Z,45.818
2023-05-21T11:02:35.237Z,46.897
2023-05-21T11:03:39.325Z,46.642
2023-05-21T11:04:35.256Z,47.590
2023-05-21T11:05:35.741Z,47.746
2023-05-21T11:06:35.288Z,47.483
2023-05-21T11:07:35.748Z,47.090
2023-05-21T11:08:35.196Z,46.083
2023-05-21T11:09:35.722Z,46.768
2023-05-21T11:10:35.334Z,47.351
2023-05-21T11:11:35.636Z,46.152
2023-05-21T11:12:35.090Z,45.404
2023-05-21T11:13:35.608Z,44.828
2023-05-21T11:14:35.383Z,44.851
2023-05-21T11:15:35.163Z,44.111
2023-05-21T11:16:35.751Z,44.145
2023-05-21T11:17:35.538Z,44.916
2023-05-21T11:18:34.999Z,44.715
2023-05-21T11:19:39.500Z,46.054
2023-05-21T11:21:34.900Z,45.589
2023-05-21T11:22:35.377Z,42.806
2023-05-21T11:23:34.923Z,42.730
2023-05-21T11:24:35.331Z,43.889
2023-05-21T11:25:35.798Z,43.254
2023-05-21T11:26:35.236Z,42.507
2023-05-21T11:27:35.759Z,41.751
2023-05-21T11:28:35.365Z,41.494
2023-05-21T11:29:35.809Z,41.091
2023-05-21T11:30:35.960Z,41.580
2023-05-21T11:31:35.534Z,42.583
2023-05-21T11:32:35.373Z,43.193
2023-05-21T11:33:35.015Z,42.358
2023-05-21T11:34:35.479Z,42.728
2023-05-21T11:35:34.936Z,41.410
2023-05-21T11:36:38.616Z,41.127
2023-05-21T11:37:35.081Z,42.184
2023-05-21T11:38:34.881Z,41.604
2023-05-21T11:39:35.467Z,40.962
2023-05-21T11:40:35.142Z,40.960
2023-05-21T11:41:35.195Z,40.414
2023-05-21T11:42:35.643Z,40.025
2023-05-21T11:43:35.150Z,40.006
2023-05-21T11:44:35.593Z,40.664
2023-05-21T11:45:35.157Z,40.983
2023-05-21T11:46:35.879Z,41.452
2023-05-21T11:47:35.856Z,41.639
2023-05-21T11:48:38.021Z,40.614
2023-05-21T11:49:35.546Z,41.240
2023-05-21T11:50:35.388Z,40.811
2023-05-21T11:51:35.713Z,40.353
2023-05-21T11:52:35.224Z,40.660
2023-05-21T11:53:35.077Z,40.241
2023-05-21T11:54:35.151Z,39.743
2023-05-21T11:55:35.706Z,39.884
2023-05-21T11:56:35.174Z,39.277
2023-05-21T11:57:35.688Z,38.327
2023-05-21T11:58:35.413Z,38.236
2023-05-21T11:59:34.907Z,37.753
2023-05-21T12:00:35.578Z,38.127
2023-05-21T12:01:35.601Z,37.690
2023-05-21T12:02:36.085Z,37.235
2023-05-21T12:03:36.735Z,37.112
2023-05-21T12:04:35.776Z,36.998
2023-05-21T12:05:35.386Z,37.797
2023-05-21T12:06:35.170Z,36.802
2023-05-21T12:07:35.843Z,37.011
2023-05-21T12:10:35.621Z,36.594
2023-05-21T12:11:35.309Z,35.556
2023-05-21T12:12:54.916Z,35.747
2023-05-21T12:14:35.502Z,34.810
2023-05-21T12:15:35.591Z,34.219
2023-05-21T12:16:35.253Z,32.558
2023-05-21T12:17:35.964Z,32.479
2023-05-21T12:18:35.630Z,32.128
2023-05-21T12:19:35.248Z,31.697
2023-05-21T12:20:35.920Z,31.896
2023-05-21T12:21:35.698Z,32.647
2023-05-21T12:22:35.188Z,31.400
2023-05-21T12:23:35.677Z,31.673
2023-05-21T12:24:35.179Z,31.093
2023-05-21T12:25:35.776Z,31.160
2023-05-21T12:26:35.305Z,29.977
2023-05-21T12:27:37.888Z,30.139
2023-05-21T12:28:35.378Z,30.080
2023-05-21T12:29:35.823Z,30.028
2023-05-21T12:30:35.727Z,31.207
2023-05-21T12:31:35.951Z,30.858
2023-05-21T12:32:35.770Z,31.459
2023-05-21T12:33:35.396Z,31.858
2023-05-21T12:34:34.836Z,32.176
2023-05-21T12:35:35.970Z,32.594
2023-05-21T12:36:35.581Z,32.514
2023-05-21T12:37:35.001Z,34.208
2023-05-21T12:38:35.543Z,35.356
2023-05-21T12:39:34.972Z,36.975
2023-05-21T12:40:35.599Z,38.219
2023-05-21T12:41:35.770Z,38.469
2023-05-21T12:42:35.276Z,38.581
2023-05-21T12:43:35.783Z,37.969
2023-05-21T12:44:37.077Z,36.386
2023-05-21T12:46:35.423Z,35.817
2023-05-21T12:47:35.416Z,34.839
2023-05-21T12:48:35.026Z,35.716
2023-05-21T12:49:35.404Z,36.531
2023-05-21T12:50:36.329Z,35.484
2023-05-21T12:51:35.475Z,35.327
2023-05-21T12:52:34.952Z,34.585
2023-05-21T12:53:35.470Z,35.495
2023-05-21T12:54:34.946Z,35.047
2023-05-21T12:55:35.683Z,35.274
2023-05-21T12:56:35.155Z,34.021
2023-05-21T12:57:35.663Z,33.097
2023-05-21T12:58:35.188Z,32.413
2023-05-21T12:59:35.662Z,32.243
2023-05-21T13:00:35.450Z,32.453
2023-05-21T13:01:34.924Z,32.329
2023-05-21T13:02:35.967Z,33.336
2023-05-21T13:03:35.139Z,32.190
2023-05-21T13:04:35.937Z,33.544
2023-05-21T13:05:35.369Z,33.397
2023-05-21T13:06:35.788Z,33.349
2023-05-21T13:07:35.329Z,32.874
2023-05-21T13:08:35.871Z,31.209
2023-05-21T13:09:35.322Z,30.412
2023-05-21T13:10:35.987Z,30.242
2023-05-21T13:11:35.205Z,29.393
2023-05-21T13:12:35.804Z,29.319
2023-05-21T13:14:35.071Z,27.953
2023-05-21T13:15:36.010Z,28.318
2023-05-21T13:16:35.997Z,28.728
2023-05-21T13:17:35.695Z,28.394
2023-05-21T13:18:35.290Z,27.679
2023-05-21T13:19:36.447Z,27.797
2023-05-21T13:20:35.050Z,27.721